Aviation Digital Data Service (ADDS)

Output produced by METARs form (1339 UTC 04 July 2015)
found at http://aviationweather.gov/adds/metars/
 
KATL 041257Z 0413/0518 24008KT 5SM SHRA SCT025 OVC040 
     FM041500 26010G17KT P6SM -SHRA SCT030 BKN050 
     FM041800 26012G20KT P6SM -SHRA SCT035 BKN040 
     TEMPO 0420/0424 4SM TSRA BR BKN025CB 
     FM050000 28003KT P6SM -SHRA OVC040 
     FM050900 27003KT P6SM BKN060 
     PROB30 0509/0512 -SHRA BKN040 
     FM051200 27003KT P6SM -SHRA SCT030 BKN060